createdAt,value
2023-03-11T00:06:25.920Z,95.95
2023-03-11T00:07:51.400Z,95.91
2023-03-11T00:13:37.094Z,95.95
2023-03-11T00:20:12.740Z,95.75
2023-03-11T00:21:48.096Z,95.85
2023-03-11T00:23:22.812Z,95.85
2023-03-11T00:27:25.651Z,95.75
2023-03-11T00:30:15.198Z,95.85
2023-03-11T00:32:05.141Z,95.85
2023-03-11T00:33:35.840Z,95.95
2023-03-11T00:36:04.184Z,96.06
2023-03-11T00:42:00.258Z,95.85
2023-03-11T00:44:15.826Z,95.75
2023-03-11T00:48:16.988Z,95.85
2023-03-11T00:49:47.525Z,95.85
2023-03-11T00:53:00.397Z,95.75
2023-03-11T00:55:40.196Z,95.64
2023-03-11T00:58:11.203Z,95.75
2023-03-11T00:59:41.189Z,95.68
2023-03-11T01:01:47.213Z,95.79
2023-03-11T01:05:37.243Z,95.85
2023-03-11T01:08:16.563Z,95.68
2023-03-11T01:12:35.318Z,95.79
2023-03-11T01:15:18.735Z,95.89
2023-03-11T01:18:49.080Z,95.89
2023-03-11T01:21:18.332Z,96.11
2023-03-11T01:22:48.347Z,96.11
2023-03-11T01:27:08.703Z,96.21
2023-03-11T01:31:45.351Z,96.00
2023-03-11T01:36:08.977Z,95.75
2023-03-11T01:41:32.957Z,95.48
2023-03-11T01:43:32.114Z,95.58
2023-03-11T01:45:50.864Z,95.68
2023-03-11T01:47:29.038Z,95.33
2023-03-11T01:50:27.966Z,95.17
2023-03-11T01:54:10.047Z,95.27
2023-03-11T01:58:10.931Z,95.17
2023-03-11T02:00:03.028Z,95.12
2023-03-11T02:01:53.695Z,95.06
2023-03-11T02:07:07.468Z,94.96
2023-03-11T02:11:35.327Z,94.96
2023-03-11T02:15:40.053Z,94.85
2023-03-11T02:21:20.407Z,94.75
2023-03-11T02:26:52.488Z,94.43
2023-03-11T02:28:27.324Z,94.33
2023-03-11T02:30:55.801Z,94.33
2023-03-11T02:40:59.889Z,93.81
2023-03-11T02:44:25.312Z,93.81
2023-03-11T02:49:13.409Z,93.75
2023-03-11T02:51:18.768Z,93.96
2023-03-11T02:54:26.452Z,93.85
2023-03-11T03:02:48.488Z,93.65
2023-03-11T03:07:53.649Z,93.90
2023-03-11T03:09:27.325Z,93.96
2023-03-11T03:13:30.780Z,93.75
2023-03-11T03:20:13.093Z,93.23
2023-03-11T03:22:13.625Z,93.12
2023-03-11T03:25:53.800Z,93.23
2023-03-11T03:29:01.332Z,92.97
2023-03-11T03:30:29.263Z,92.91
2023-03-11T03:31:59.466Z,92.91
2023-03-11T03:35:19.203Z,92.66
2023-03-11T03:40:59.584Z,92.46
2023-03-11T03:45:04.533Z,92.35
2023-03-11T03:48:42.762Z,92.25
2023-03-11T03:53:27.675Z,92.29
2023-03-11T03:56:37.761Z,92.29
2023-03-11T03:58:06.578Z,92.18
2023-03-11T04:00:28.193Z,91.97
2023-03-11T04:05:37.017Z,91.56
2023-03-11T04:06:42.616Z,91.41
2023-03-11T04:07:56.086Z,91.35
2023-03-11T04:15:58.351Z,91.10
2023-03-11T04:17:29.210Z,91.00
2023-03-11T04:20:17.934Z,91.00
2023-03-11T04:21:48.797Z,90.89
2023-03-11T04:25:13.872Z,90.83
2023-03-11T04:27:17.247Z,90.83
2023-03-11T04:29:14.230Z,90.72
2023-03-11T04:30:16.024Z,90.62
2023-03-11T04:31:15.098Z,90.52
2023-03-11T04:35:19.248Z,90.45
2023-03-11T04:39:47.458Z,90.77
2023-03-11T04:41:39.937Z,90.66
2023-03-11T04:45:30.007Z,90.56
2023-03-11T04:48:40.503Z,90.60
2023-03-11T04:50:40.366Z,90.91
2023-03-11T04:57:05.812Z,91.22
2023-03-11T05:04:16.863Z,91.22
2023-03-11T05:07:31.409Z,91.12
2023-03-11T05:13:13.947Z,91.12
2023-03-11T05:16:23.514Z,91.22
2023-03-11T05:18:44.051Z,91.16
2023-03-11T05:22:24.515Z,91.16
2023-03-11T05:23:51.487Z,91.16
2023-03-11T05:31:16.319Z,91.41
2023-03-11T05:38:58.973Z,91.41
2023-03-11T05:42:36.645Z,91.62
2023-03-11T05:54:43.907Z,92.00
2023-03-11T05:57:18.489Z,92.00
2023-03-11T05:59:19.396Z,92.00
2023-03-11T06:01:06.515Z,92.00
2023-03-11T06:06:26.620Z,92.21
2023-03-11T06:08:44.800Z,92.21
2023-03-11T06:12:55.094Z,92.31
2023-03-11T06:15:16.261Z,92.41
2023-03-11T06:18:07.392Z,92.31
2023-03-11T06:22:40.174Z,92.52
2023-03-11T06:24:28.067Z,92.52
2023-03-11T06:27:23.037Z,92.63
2023-03-11T06:29:22.067Z,92.52
2023-03-11T06:31:44.900Z,92.41
2023-03-11T06:41:09.017Z,92.41
2023-03-11T06:47:48.862Z,92.21
2023-03-11T06:51:51.847Z,92.41
2023-03-11T06:53:23.574Z,92.41
2023-03-11T06:57:04.641Z,92.31
2023-03-11T07:00:35.406Z,92.31
2023-03-11T07:02:36.044Z,92.52
2023-03-11T07:03:55.221Z,92.52
2023-03-11T07:04:34.197Z,92.52
2023-03-11T07:06:26.878Z,92.37
2023-03-11T07:12:24.709Z,92.27
2023-03-11T07:15:07.649Z,92.27
2023-03-11T07:17:26.194Z,92.02
2023-03-11T07:24:34.610Z,91.60
2023-03-11T07:26:33.656Z,91.50
2023-03-11T07:29:53.990Z,91.35
2023-03-11T07:31:48.631Z,91.04
2023-03-11T07:35:05.144Z,90.72
2023-03-11T07:37:22.931Z,90.62
2023-03-11T07:39:54.998Z,90.52
2023-03-11T07:42:12.865Z,90.37
2023-03-11T07:52:02.000Z,89.32
2023-03-11T07:53:32.028Z,89.12
2023-03-11T07:55:21.770Z,89.01
2023-03-11T08:03:13.471Z,88.52
2023-03-11T08:07:13.152Z,88.17
2023-03-11T08:09:33.202Z,87.75
2023-03-11T08:16:12.629Z,86.04
2023-03-11T08:18:14.095Z,86.29
2023-03-11T08:23:10.508Z,85.69
2023-03-11T08:29:48.285Z,83.47
2023-03-11T08:39:32.280Z,74.88
2023-03-11T08:40:30.322Z,73.60
2023-03-11T08:41:30.301Z,71.71
2023-03-11T08:48:05.856Z,66.71
2023-03-11T08:49:38.743Z,64.21
2023-03-11T08:52:35.817Z,62.81
2023-03-11T08:54:05.669Z,62.77
2023-03-11T08:56:37.401Z,63.96
2023-03-11T08:58:35.606Z,64.78
2023-03-11T09:00:24.495Z,64.18
2023-03-11T09:04:18.946Z,62.40
2023-03-11T09:15:56.366Z,61.42
2023-03-11T09:18:56.520Z,57.76
2023-03-11T09:22:33.893Z,57.18
2023-03-11T09:25:34.652Z,56.90
2023-03-11T09:30:00.545Z,55.98
2023-03-11T09:31:31.404Z,56.77
2023-03-11T09:33:30.353Z,56.56
2023-03-11T09:36:17.163Z,57.64
2023-03-11T09:37:46.065Z,58.28
2023-03-11T09:42:05.325Z,61.30
2023-03-11T09:50:52.539Z,61.76
2023-03-11T09:53:32.906Z,61.52
2023-03-11T09:55:21.074Z,61.93
2023-03-11T09:58:58.187Z,61.62
2023-03-11T10:00:47.874Z,60.60
2023-03-11T10:03:07.751Z,61.08
2023-03-11T10:09:48.284Z,63.29
2023-03-11T10:11:46.137Z,62.55
2023-03-11T10:14:13.034Z,62.55
2023-03-11T10:18:15.088Z,59.77
2023-03-11T10:23:15.640Z,58.51
2023-03-11T10:28:02.285Z,56.43
2023-03-11T10:30:50.370Z,57.02
2023-03-11T10:37:49.333Z,54.24
2023-03-11T10:40:28.374Z,52.22
2023-03-11T10:43:00.111Z,52.02
2023-03-11T10:44:28.186Z,50.06
2023-03-11T10:47:35.991Z,50.03
2023-03-11T10:49:55.760Z,50.42
2023-03-11T10:52:36.764Z,49.71
2023-03-11T10:54:09.395Z,46.29
2023-03-11T10:56:07.533Z,45.20
2023-03-11T10:58:01.471Z,45.72
2023-03-11T11:03:08.265Z,44.12
2023-03-11T11:09:35.856Z,44.78
2023-03-11T11:11:04.215Z,43.59
2023-03-11T11:13:04.172Z,46.48
2023-03-11T11:17:35.937Z,43.60
2023-03-11T11:19:23.081Z,41.42
2023-03-11T11:20:53.011Z,40.50
2023-03-11T11:21:52.982Z,40.34
2023-03-11T11:22:54.841Z,40.30
2023-03-11T11:30:31.935Z,38.64
2023-03-11T11:34:04.417Z,36.46
2023-03-11T11:39:50.454Z,37.93
2023-03-11T11:41:18.554Z,36.75
2023-03-11T11:44:51.401Z,34.14
2023-03-11T11:46:41.245Z,34.06
2023-03-11T11:48:46.461Z,35.57
2023-03-11T11:50:51.121Z,33.86
2023-03-11T11:55:06.157Z,33.00
2023-03-11T11:56:35.045Z,32.32
2023-03-11T11:58:03.969Z,32.12
2023-03-11T12:00:54.355Z,31.37
2023-03-11T12:04:37.902Z,34.63
2023-03-11T12:06:09.537Z,34.34
2023-03-11T12:09:18.064Z,34.38
2023-03-11T12:12:58.231Z,33.77
2023-03-11T12:16:35.892Z,34.33
2023-03-11T12:20:24.054Z,31.14
2023-03-11T12:22:45.280Z,31.05
2023-03-11T12:24:15.154Z,31.65
2023-03-11T12:26:03.843Z,32.29
2023-03-11T12:27:32.732Z,30.67
2023-03-11T12:29:02.224Z,29.88
2023-03-11T12:32:50.937Z,29.44
2023-03-11T12:34:49.718Z,29.35
2023-03-11T12:37:19.480Z,28.68
2023-03-11T12:39:09.486Z,28.45
2023-03-11T12:40:38.125Z,27.77
2023-03-11T12:43:55.878Z,27.55
2023-03-11T12:46:43.063Z,28.68
2023-03-11T12:50:34.811Z,27.95
2023-03-11T12:52:01.855Z,28.44
2023-03-11T12:53:51.558Z,28.78
2023-03-11T13:18:21.986Z,33.11
2023-03-11T13:19:49.497Z,31.86
2023-03-11T13:22:10.470Z,31.57
2023-03-11T13:25:45.850Z,30.94
2023-03-11T13:29:30.464Z,30.60
2023-03-11T13:32:20.663Z,29.94
2023-03-11T13:37:04.282Z,29.32
2023-03-11T13:43:53.553Z,29.38
2023-03-11T13:55:15.486Z,30.82
2023-03-11T13:57:34.760Z,32.24
2023-03-11T13:59:34.089Z,32.29
2023-03-11T14:03:42.916Z,31.00
2023-03-11T14:11:52.503Z,31.03
2023-03-11T14:15:52.063Z,31.35
2023-03-11T14:19:41.231Z,30.05
2023-03-11T14:21:39.261Z,28.77
2023-03-11T14:24:20.364Z,30.93
2023-03-11T14:26:50.037Z,31.67
2023-03-11T14:30:19.110Z,32.53
2023-03-11T14:35:15.649Z,37.05
2023-03-11T14:38:46.684Z,38.69
2023-03-11T14:44:31.813Z,40.75
2023-03-11T14:46:00.796Z,40.55
2023-03-11T14:48:31.502Z,41.06
2023-03-11T14:51:18.205Z,40.46
2023-03-11T14:54:15.399Z,40.33
2023-03-11T14:56:04.183Z,39.23
2023-03-11T14:59:59.973Z,40.37
2023-03-11T15:05:03.594Z,45.64
2023-03-11T15:06:35.470Z,45.36
2023-03-11T15:07:34.653Z,45.36
2023-03-11T15:08:33.491Z,43.42
2023-03-11T15:10:03.378Z,44.02
2023-03-11T15:12:20.955Z,46.09
2023-03-11T15:13:20.925Z,45.99
2023-03-11T15:14:20.926Z,46.30
2023-03-11T15:16:48.450Z,46.53
2023-03-11T15:18:17.385Z,46.11
2023-03-11T15:22:03.215Z,46.86
2023-03-11T15:33:04.504Z,44.90
2023-03-11T15:37:32.945Z,47.78
2023-03-11T15:39:49.817Z,46.47
2023-03-11T15:42:17.875Z,47.91
2023-03-11T15:44:36.603Z,48.54
2023-03-11T15:49:36.019Z,49.49
2023-03-11T15:53:21.080Z,46.82
2023-03-11T15:55:19.094Z,48.46
2023-03-11T15:56:48.861Z,48.90
2023-03-11T15:58:48.307Z,49.49
2023-03-11T16:00:18.296Z,48.59
2023-03-11T16:03:17.051Z,46.53
2023-03-11T16:05:19.391Z,46.24
2023-03-11T16:06:53.928Z,46.55
2023-03-11T16:08:49.227Z,47.27
2023-03-11T16:12:58.466Z,48.41
2023-03-11T16:14:54.444Z,47.56
2023-03-11T16:16:26.665Z,48.49
2023-03-11T16:18:59.934Z,49.31
2023-03-11T16:20:58.820Z,48.90
2023-03-11T16:22:55.858Z,49.21
2023-03-11T16:24:24.902Z,48.80
2023-03-11T16:25:55.593Z,49.52
2023-03-11T16:29:06.151Z,49.72
2023-03-11T16:34:45.333Z,51.06
2023-03-11T16:36:16.757Z,50.75
2023-03-11T16:40:23.988Z,48.41
2023-03-11T16:43:14.594Z,49.98
2023-03-11T16:44:45.625Z,50.36
2023-03-11T16:46:12.640Z,51.70
2023-03-11T16:49:04.454Z,51.81
2023-03-11T16:50:38.203Z,51.81
2023-03-11T16:56:03.639Z,51.00
2023-03-11T16:59:23.162Z,51.62
2023-03-11T17:00:51.598Z,50.72
2023-03-11T17:02:23.349Z,51.34
2023-03-11T17:03:21.790Z,51.83
2023-03-11T17:04:21.046Z,51.93
2023-03-11T17:07:18.024Z,52.26
2023-03-11T17:09:38.103Z,52.91
2023-03-11T17:12:23.836Z,52.73
2023-03-11T17:17:07.261Z,54.58
2023-03-11T17:24:14.089Z,55.56
2023-03-11T17:27:13.972Z,56.49
2023-03-11T17:34:09.148Z,57.76
2023-03-11T17:35:58.894Z,58.59
2023-03-11T17:39:50.221Z,58.82
2023-03-11T17:44:33.238Z,58.84
2023-03-11T17:47:04.120Z,58.44
2023-03-11T17:50:11.668Z,59.60
2023-03-11T18:01:02.647Z,62.11
2023-03-11T18:02:31.597Z,62.04
2023-03-11T18:04:59.750Z,61.93
2023-03-11T18:08:18.370Z,62.14
2023-03-11T18:12:36.838Z,62.06
2023-03-11T18:16:04.732Z,62.99
2023-03-11T18:19:21.385Z,63.31
2023-03-11T18:21:49.379Z,63.62
2023-03-11T18:23:17.474Z,63.85
2023-03-11T18:27:04.982Z,63.54
2023-03-11T18:28:34.123Z,63.65
2023-03-11T18:31:04.482Z,63.75
2023-03-11T18:32:35.616Z,63.85
2023-03-11T18:33:35.427Z,64.09
2023-03-11T18:34:35.430Z,63.99
2023-03-11T18:39:07.639Z,63.89
2023-03-11T18:43:51.823Z,63.57
2023-03-11T18:47:12.826Z,63.40
2023-03-11T18:50:19.081Z,63.81
2023-03-11T18:55:07.264Z,64.54
2023-03-11T18:56:54.130Z,64.64
2023-03-11T18:58:24.020Z,64.67
2023-03-11T18:59:52.901Z,64.67
2023-03-11T19:01:22.848Z,64.77
2023-03-11T19:04:43.639Z,65.19
2023-03-11T19:07:27.173Z,65.73
2023-03-11T19:10:54.534Z,65.84
2023-03-11T19:15:28.788Z,65.73
2023-03-11T19:19:18.317Z,66.05
2023-03-11T19:21:19.217Z,66.18
2023-03-11T19:22:55.107Z,66.50
2023-03-11T19:25:15.015Z,66.60
2023-03-11T19:27:17.570Z,67.02
2023-03-11T19:33:28.275Z,67.95
2023-03-11T19:39:49.803Z,68.40
2023-03-11T19:43:20.651Z,68.08
2023-03-11T19:47:09.403Z,68.40
2023-03-11T19:51:19.994Z,68.71
2023-03-11T19:54:24.972Z,68.91
2023-03-11T19:57:46.624Z,69.12
2023-03-11T20:00:13.299Z,69.23
2023-03-11T20:03:42.112Z,69.12
2023-03-11T20:12:38.099Z,69.61
2023-03-11T20:14:54.168Z,69.82
2023-03-11T20:20:04.697Z,69.20
2023-03-11T20:21:04.666Z,69.09
2023-03-11T20:22:04.686Z,68.99
2023-03-11T20:23:04.685Z,68.99
2023-03-11T20:30:11.671Z,69.40
2023-03-11T20:31:43.596Z,69.61
2023-03-11T20:34:03.689Z,69.61
2023-03-11T20:40:44.046Z,69.40
2023-03-11T20:47:07.397Z,69.23
2023-03-11T20:57:34.586Z,69.85
2023-03-11T21:01:08.686Z,69.78
2023-03-11T21:03:01.730Z,69.99
2023-03-11T21:04:50.694Z,70.51
2023-03-11T21:07:10.451Z,70.61
2023-03-11T21:09:09.572Z,70.61
2023-03-11T21:13:40.013Z,70.95
2023-03-11T21:17:23.324Z,70.95
2023-03-11T21:20:21.200Z,70.54
2023-03-11T21:22:19.684Z,70.12
2023-03-11T21:25:08.896Z,69.92
2023-03-11T21:30:34.034Z,70.54
2023-03-11T21:34:54.076Z,71.09
2023-03-11T21:38:41.560Z,71.61
2023-03-11T21:44:05.810Z,72.69
2023-03-11T21:47:36.769Z,73.63
2023-03-11T21:58:08.446Z,74.70
2023-03-11T22:01:51.327Z,74.60
2023-03-11T22:05:03.603Z,74.60
2023-03-11T22:09:04.940Z,74.80
2023-03-11T22:11:56.379Z,74.91
2023-03-11T22:13:25.909Z,74.91
2023-03-11T22:14:57.964Z,75.53
2023-03-11T22:16:59.425Z,75.74
2023-03-11T22:20:19.697Z,75.95
2023-03-11T22:22:26.500Z,76.16
2023-03-11T22:25:04.051Z,76.16
2023-03-11T22:27:10.838Z,76.47
2023-03-11T22:29:54.562Z,76.78
2023-03-11T22:31:41.515Z,77.20
2023-03-11T22:34:18.780Z,77.10
2023-03-11T22:35:49.426Z,77.10
2023-03-11T22:38:29.465Z,77.41
2023-03-11T22:39:59.180Z,77.31
2023-03-11T22:42:21.186Z,77.31
2023-03-11T22:45:01.420Z,77.51
2023-03-11T22:47:37.382Z,77.31
2023-03-11T22:51:38.410Z,77.31
2023-03-11T22:53:07.007Z,77.20
2023-03-11T22:57:48.702Z,77.41
2023-03-11T22:58:38.249Z,77.41
2023-03-11T22:59:41.097Z,77.41
2023-03-11T23:00:39.505Z,77.41
2023-03-11T23:03:07.303Z,77.62
2023-03-11T23:04:39.098Z,77.83
2023-03-11T23:06:38.510Z,77.93
2023-03-11T23:09:45.078Z,78.24
2023-03-11T23:11:35.600Z,78.24
2023-03-11T23:13:25.683Z,78.45
2023-03-11T23:15:24.514Z,78.45
2023-03-11T23:17:26.699Z,78.66
2023-03-11T23:18:55.597Z,78.66
2023-03-11T23:22:56.182Z,78.56
2023-03-11T23:26:57.130Z,78.66
2023-03-11T23:30:51.345Z,79.04
2023-03-11T23:35:30.055Z,78.52
2023-03-11T23:38:28.477Z,78.20
2023-03-11T23:41:47.412Z,77.89
2023-03-11T23:49:16.583Z,73.90
2023-03-11T23:55:45.363Z,71.27
2023-03-11T23:57:13.981Z,71.17
